Time;durP1;ratioP1;P1;durP2;ratioP2;P2;SDS_P1;SDS_P2;PMS_P1;PMS_P2;Temp;Humidity;BMP_temperature;BMP_pressure;BME280_temperature;BME280_humidity;BME280_pressure;Samples;Min_cycle;Max_cycle;Signal;HPM_P1;HPM_P2
2024/01/04 00:02:21;;;;;;;10.87;3.80;;;;;;;7.08;100.00;98431.84;6043953;28;20676;-72
2024/01/04 00:05:16;;;;;;;4.53;2.40;;;;;;;6.96;100.00;98435.06;6025345;28;20080;-71
2024/01/04 00:08:12;;;;;;;6.53;2.83;;;;;;;6.89;100.00;98440.25;6026198;28;20030;-71
2024/01/04 00:11:07;;;;;;;6.73;2.40;;;;;;;6.86;100.00;98440.59;6026580;28;20042;-71
2024/01/04 00:14:07;;;;;;;5.78;1.90;;;;;;;6.83;100.00;98437.50;6025894;28;20077;-72
2024/01/04 00:17:03;;;;;;;4.90;1.88;;;;;;;6.77;100.00;98431.13;6027016;28;20158;-72
2024/01/04 00:19:59;;;;;;;4.38;1.50;;;;;;;6.72;100.00;98444.00;6033631;28;20046;-72
2024/01/04 00:22:54;;;;;;;5.10;1.63;;;;;;;6.67;100.00;98425.28;6031463;28;20034;-72
2024/01/04 00:25:50;;;;;;;4.67;1.20;;;;;;;6.69;100.00;98441.72;6032000;28;20030;-73
2024/01/04 00:28:45;;;;;;;3.95;1.20;;;;;;;6.58;100.00;98432.44;6033568;28;20029;-73
2024/01/04 00:31:41;;;;;;;4.37;1.03;;;;;;;6.64;100.00;98446.72;6032644;28;20173;-70
2024/01/04 00:34:37;;;;;;;3.20;0.95;;;;;;;6.65;100.00;98443.09;6031023;28;20254;-72
2024/01/04 00:37:33;;;;;;;2.13;0.90;;;;;;;6.66;100.00;98447.34;6026605;28;20057;-74
2024/01/04 00:40:28;;;;;;;2.87;1.10;;;;;;;6.64;100.00;98449.34;6030538;28;20398;-72
2024/01/04 00:43:23;;;;;;;3.70;1.73;;;;;;;6.67;100.00;98456.06;6030052;28;20033;-71
2024/01/04 00:46:19;;;;;;;2.43;0.87;;;;;;;6.68;100.00;98461.19;6026621;28;20520;-72
2024/01/04 00:49:14;;;;;;;2.77;0.97;;;;;;;6.66;100.00;98457.88;6030160;28;20034;-72
2024/01/04 00:52:10;;;;;;;5.60;1.33;;;;;;;6.65;100.00;98456.25;6027131;28;20048;-74
2024/01/04 00:55:05;;;;;;;3.35;1.23;;;;;;;6.69;100.00;98459.34;6029545;28;20042;-73
2024/01/04 00:58:03;;;;;;;6.03;1.42;;;;;;;6.69;100.00;98465.44;6034573;28;20037;-73
2024/01/04 01:00:58;;;;;;;1.95;0.93;;;;;;;6.66;100.00;98465.78;6042080;28;20109;-72
2024/01/04 01:03:54;;;;;;;2.93;1.00;;;;;;;6.65;100.00;98469.44;6034016;28;20053;-73
2024/01/04 01:06:49;;;;;;;4.65;1.20;;;;;;;6.65;100.00;98466.78;6030635;28;20548;-72
2024/01/04 01:09:45;;;;;;;2.63;1.10;;;;;;;6.60;100.00;98461.25;6044076;28;20064;-73
2024/01/04 01:12:40;;;;;;;3.90;1.00;;;;;;;6.62;100.00;98463.69;6038728;28;20036;-73
2024/01/04 01:15:35;;;;;;;2.70;1.00;;;;;;;6.67;100.00;98477.97;6039271;28;20504;-74
2024/01/04 01:18:31;;;;;;;2.60;1.35;;;;;;;6.62;100.00;98475.03;6039677;28;20033;-72
2024/01/04 01:21:26;;;;;;;5.20;1.83;;;;;;;6.65;100.00;98469.44;6037767;28;20028;-73
2024/01/04 01:24:21;;;;;;;5.00;1.93;;;;;;;6.68;100.00;98474.34;6030594;28;20025;-73
2024/01/04 01:27:17;;;;;;;3.80;1.93;;;;;;;6.71;100.00;98484.53;6043138;28;20492;-73
2024/01/04 01:30:12;;;;;;;4.20;2.37;;;;;;;6.75;100.00;98485.81;6038017;28;20116;-72
2024/01/04 01:33:07;;;;;;;4.83;2.50;;;;;;;6.71;100.00;98474.00;6041781;28;20034;-73
2024/01/04 01:36:06;;;;;;;10.37;2.53;;;;;;;6.80;100.00;98486.09;6035986;28;20360;-72
2024/01/04 01:39:04;;;;;;;8.15;2.45;;;;;;;6.84;100.00;98497.91;6033701;28;20033;-73
2024/01/04 01:41:59;;;;;;;5.65;2.53;;;;;;;6.87;100.00;98499.38;6043700;28;20026;-73
2024/01/04 01:44:55;;;;;;;4.50;2.17;;;;;;;6.89;100.00;98503.47;6038793;28;20026;-73
2024/01/04 01:47:50;;;;;;;4.87;2.03;;;;;;;6.89;100.00;98508.75;6037485;28;20384;-72
2024/01/04 01:50:46;;;;;;;4.43;2.08;;;;;;;6.92;100.00;98504.94;6031979;28;20031;-71
2024/01/04 01:53:41;;;;;;;6.75;1.80;;;;;;;6.90;100.00;98513.00;6031326;28;20057;-72
2024/01/04 01:56:37;;;;;;;5.80;1.70;;;;;;;6.86;100.00;98510.91;6032723;28;20390;-74
2024/01/04 01:59:32;;;;;;;6.07;1.63;;;;;;;6.76;100.00;98508.53;6025842;28;20032;-72
2024/01/04 02:02:28;;;;;;;4.03;2.00;;;;;;;6.79;100.00;98513.44;6033898;28;20296;-74
2024/01/04 02:05:23;;;;;;;5.55;1.65;;;;;;;6.77;100.00;98528.56;6035038;28;20026;-72
2024/01/04 02:08:18;;;;;;;4.63;1.53;;;;;;;6.68;100.00;98516.47;6035566;28;20500;-73
2024/01/04 02:11:17;;;;;;;4.32;1.30;;;;;;;6.71;100.00;98523.22;6045549;28;20037;-73
2024/01/04 02:14:12;;;;;;;3.47;1.20;;;;;;;6.71;100.00;98524.03;6041477;28;20056;-73
2024/01/04 02:17:07;;;;;;;3.03;1.00;;;;;;;6.77;100.00;98535.66;6028182;28;20034;-71
2024/01/04 02:20:03;;;;;;;3.17;1.00;;;;;;;6.64;100.00;98536.25;6038731;28;20030;-73
2024/01/04 02:23:00;;;;;;;4.05;1.20;;;;;;;6.64;100.00;98557.31;6043749;28;20027;-72
2024/01/04 02:25:55;;;;;;;2.15;0.93;;;;;;;6.58;100.00;98535.13;6033530;28;20470;-73
2024/01/04 02:28:51;;;;;;;2.47;0.90;;;;;;;6.53;100.00;98541.91;6043238;28;20084;-73
2024/01/04 02:31:48;;;;;;;3.30;1.10;;;;;;;6.63;100.00;98563.59;6036199;28;20026;-73
2024/01/04 02:34:43;;;;;;;5.22;1.98;;;;;;;6.63;100.00;98558.31;6039429;28;20034;-72
2024/01/04 02:37:38;;;;;;;4.77;0.80;;;;;;;6.64;100.00;98559.13;6027638;28;20049;-72
2024/01/04 02:40:34;;;;;;;3.53;1.07;;;;;;;6.72;100.00;98570.41;6028094;28;20041;-72
2024/01/04 02:43:29;;;;;;;1.55;0.68;;;;;;;6.70;100.00;98563.69;6037049;28;20116;-73
2024/01/04 02:46:25;;;;;;;4.50;1.27;;;;;;;6.72;100.00;98570.41;6036783;28;20057;-73
2024/01/04 02:49:20;;;;;;;2.80;0.80;;;;;;;6.77;100.00;98589.16;6031769;28;20046;-72
2024/01/04 02:52:16;;;;;;;1.83;0.90;;;;;;;6.78;100.00;98588.16;6033088;28;21806;-71
2024/01/04 02:55:11;;;;;;;3.13;0.98;;;;;;;6.80;100.00;98591.44;6034943;28;20474;-72
2024/01/04 02:58:07;;;;;;;3.17;1.17;;;;;;;6.73;100.00;98587.88;6035567;28;20029;-72
2024/01/04 03:01:03;;;;;;;2.95;1.10;;;;;;;6.77;100.00;98596.22;6027256;28;20037;-72
2024/01/04 03:03:58;;;;;;;4.63;0.88;;;;;;;6.71;100.00;98610.13;6035583;28;20053;-73
2024/01/04 03:06:53;;;;;;;2.73;0.93;;;;;;;6.66;100.00;98613.25;6041698;28;20061;-70
2024/01/04 03:09:49;;;;;;;1.97;0.97;;;;;;;6.58;100.00;98594.84;6039666;28;20037;-73
2024/01/04 03:12:44;;;;;;;2.47;0.93;;;;;;;6.52;100.00;98606.91;6039268;28;20049;-71
2024/01/04 03:15:39;;;;;;;5.60;1.40;;;;;;;6.52;100.00;98611.38;6042729;28;20045;-71
2024/01/04 03:18:35;;;;;;;1.80;1.00;;;;;;;6.56;100.00;98617.91;6041440;28;20022;-72
2024/01/04 03:21:30;;;;;;;1.97;1.20;;;;;;;6.60;100.00;98611.31;6044244;28;20033;-71
2024/01/04 03:24:25;;;;;;;3.17;1.10;;;;;;;6.62;100.00;98624.31;6044826;28;20030;-73
2024/01/04 03:27:21;;;;;;;2.73;1.07;;;;;;;6.69;100.00;98635.78;6036801;28;20025;-72
2024/01/04 03:30:16;;;;;;;2.83;1.00;;;;;;;6.72;100.00;98643.34;6046626;28;20057;-71
2024/01/04 03:33:11;;;;;;;2.47;1.00;;;;;;;6.73;100.00;98648.44;6042031;28;20054;-73
2024/01/04 03:36:09;;;;;;;3.60;1.50;;;;;;;6.65;100.00;98648.50;6038500;28;20035;-72
2024/01/04 03:39:05;;;;;;;2.80;1.10;;;;;;;6.57;100.00;98632.72;6038607;28;20089;-72
2024/01/04 03:42:00;;;;;;;3.67;1.10;;;;;;;6.69;100.00;98648.94;6030917;28;20042;-72
2024/01/04 03:44:55;;;;;;;2.17;1.10;;;;;;;6.76;100.00;98656.00;6040219;28;20390;-72
2024/01/04 03:47:51;;;;;;;1.33;0.70;;;;;;;6.64;100.00;98646.84;6028655;28;20524;-72
2024/01/04 03:50:46;;;;;;;4.15;1.00;;;;;;;6.75;100.00;98654.34;6032818;28;20027;-73
2024/01/04 03:53:42;;;;;;;1.10;0.70;;;;;;;6.76;100.00;98666.53;6029886;28;20038;-72
2024/01/04 03:56:38;;;;;;;4.90;1.20;;;;;;;6.70;100.00;98651.44;6039142;28;20424;-73
2024/01/04 03:59:35;;;;;;;3.83;1.13;;;;;;;6.74;100.00;98657.97;6040866;28;20038;-73
2024/01/04 04:02:31;;;;;;;3.33;0.90;;;;;;;6.76;100.00;98669.19;6034269;28;20045;-73
2024/01/04 04:05:26;;;;;;;1.80;0.80;;;;;;;6.66;100.00;98663.28;6035576;28;20050;-73
2024/01/04 04:08:21;;;;;;;1.40;0.63;;;;;;;6.66;100.00;98665.91;6043812;28;20049;-73
2024/01/04 04:11:17;;;;;;;3.93;0.93;;;;;;;6.65;100.00;98661.66;6035777;28;20647;-72
2024/01/04 04:14:13;;;;;;;2.38;0.95;;;;;;;6.66;100.00;98686.97;6043137;28;20033;-72
2024/01/04 04:17:08;;;;;;;2.93;1.20;;;;;;;6.62;100.00;98700.66;6031777;28;20478;-73
2024/01/04 04:20:04;;;;;;;5.10;1.40;;;;;;;6.44;100.00;98714.88;6040505;28;20466;-72
2024/01/04 04:22:59;;;;;;;2.47;0.90;;;;;;;6.35;100.00;98720.34;6038187;28;20273;-73
2024/01/04 04:25:55;;;;;;;1.47;0.60;;;;;;;6.23;100.00;98729.56;6039989;28;20022;-71
2024/01/04 04:28:51;;;;;;;2.10;1.05;;;;;;;6.11;100.00;98725.66;6036066;28;20030;-72
2024/01/04 04:31:50;;;;;;;2.33;0.98;;;;;;;6.06;100.00;98751.66;6044544;28;20022;-72
2024/01/04 04:34:45;;;;;;;3.00;0.82;;;;;;;5.90;100.00;98736.66;6038946;28;20022;-72
2024/01/04 04:37:40;;;;;;;4.40;0.87;;;;;;;5.72;100.00;98755.22;6037470;28;20030;-72
2024/01/04 04:40:35;;;;;;;2.67;0.73;;;;;;;5.56;100.00;98773.59;6037926;28;20026;-71
2024/01/04 04:43:34;;;;;;;2.03;0.60;;;;;;;5.36;100.00;98765.19;6045267;28;20041;-71
2024/01/04 04:46:29;;;;;;;2.33;0.80;;;;;;;5.30;100.00;98776.34;6032580;28;20424;-72
2024/01/04 04:49:26;;;;;;;1.60;0.67;;;;;;;5.26;100.00;98792.59;6037020;28;20033;-72
2024/01/04 04:52:21;;;;;;;1.65;0.70;;;;;;;5.17;100.00;98785.66;6035293;28;20113;-72
2024/01/04 04:55:16;;;;;;;1.87;0.80;;;;;;;5.09;100.00;98810.09;6034618;28;20042;-72
2024/01/04 04:58:11;;;;;;;1.20;0.80;;;;;;;5.10;100.00;98813.56;6036740;28;20021;-73
2024/01/04 05:01:08;;;;;;;1.83;0.70;;;;;;;5.03;100.00;98813.34;6031580;28;20077;-72
2024/01/04 05:04:04;;;;;;;1.15;0.60;;;;;;;5.01;100.00;98822.38;6028591;28;20253;-72
2024/01/04 05:06:59;;;;;;;3.20;0.60;;;;;;;4.96;100.00;98833.34;6034306;28;20098;-71
2024/01/04 05:09:54;;;;;;;3.80;1.20;;;;;;;5.03;100.00;98860.63;6032224;28;20030;-72
2024/01/04 05:12:51;;;;;;;2.83;1.10;;;;;;;4.92;100.00;98849.59;6033995;28;20033;-71
2024/01/04 05:15:47;;;;;;;3.17;1.20;;;;;;;4.93;100.00;98854.66;6033755;28;20030;-72
2024/01/04 05:18:42;;;;;;;3.35;1.35;;;;;;;4.84;100.00;98850.34;6032154;28;20029;-71
2024/01/04 05:21:38;;;;;;;2.83;0.90;;;;;;;4.87;100.00;98872.84;6034028;28;20421;-73
2024/01/04 05:24:36;;;;;;;3.17;1.07;;;;;;;4.74;100.00;98865.38;6025168;28;20072;-71
2024/01/04 05:27:31;;;;;;;2.80;1.00;;;;;;;4.67;100.00;98874.88;6023651;28;20266;-72
2024/01/04 05:30:27;;;;;;;3.07;1.07;;;;;;;4.80;100.00;98883.16;6029320;28;20071;-72
2024/01/04 05:33:22;;;;;;;2.53;0.70;;;;;;;4.75;100.00;98886.25;6037141;28;20022;-72
2024/01/04 05:36:17;;;;;;;3.23;1.03;;;;;;;4.73;100.00;98869.81;6030125;28;20038;-71
2024/01/04 05:39:13;;;;;;;3.60;1.37;;;;;;;4.57;100.00;98882.81;6032193;28;20520;-72
2024/01/04 05:42:08;;;;;;;3.45;1.67;;;;;;;4.60;100.00;98893.03;6031394;28;20486;-72
2024/01/04 05:45:04;;;;;;;5.20;1.60;;;;;;;4.59;100.00;98896.59;6038035;28;20054;-73
2024/01/04 05:48:00;;;;;;;5.95;1.90;;;;;;;4.52;100.00;98906.09;6026405;28;20025;-73
2024/01/04 05:50:55;;;;;;;3.80;1.60;;;;;;;4.48;100.00;98910.00;6042513;28;20034;-73
2024/01/04 05:53:50;;;;;;;6.03;1.80;;;;;;;4.45;100.00;98904.22;6034601;28;20405;-73
2024/01/04 05:56:46;;;;;;;3.30;1.73;;;;;;;4.50;100.00;98918.53;6038037;28;20465;-71
2024/01/04 05:59:41;;;;;;;5.57;1.67;;;;;;;4.53;100.00;98918.25;6038100;28;20029;-72
2024/01/04 06:02:36;;;;;;;4.20;1.47;;;;;;;4.46;100.00;98932.94;6032053;28;20072;-72
2024/01/04 06:05:32;;;;;;;3.40;1.87;;;;;;;4.55;100.00;98942.53;6030630;28;20369;-72
2024/01/04 06:08:27;;;;;;;5.63;1.63;;;;;;;4.56;100.00;98948.59;6029653;28;20034;-72
2024/01/04 06:11:22;;;;;;;9.20;1.50;;;;;;;4.59;100.00;98937.81;6034654;28;20273;-72
2024/01/04 06:14:18;;;;;;;2.63;1.30;;;;;;;4.61;100.00;98957.69;6038852;28;20555;-73
2024/01/04 06:17:13;;;;;;;2.05;1.10;;;;;;;4.61;100.00;98962.94;6036608;28;20500;-72
2024/01/04 06:20:09;;;;;;;3.00;0.93;;;;;;;4.62;100.00;98954.06;6037861;28;20041;-72
2024/01/04 06:23:05;;;;;;;2.67;1.20;;;;;;;4.73;100.00;98982.69;6037073;28;20025;-73
2024/01/04 06:26:00;;;;;;;2.00;0.68;;;;;;;4.73;100.00;98987.13;6027424;28;20064;-73
2024/01/04 06:28:55;;;;;;;3.93;1.30;;;;;;;4.66;100.00;98986.91;6032340;28;20113;-74
2024/01/04 06:31:51;;;;;;;2.67;0.70;;;;;;;4.69;100.00;98989.25;6037447;28;20030;-72
2024/01/04 06:34:46;;;;;;;1.30;0.57;;;;;;;4.73;100.00;98997.63;6032950;28;20030;-72
2024/01/04 06:37:41;;;;;;;0.73;0.53;;;;;;;4.65;100.00;99011.50;6031026;28;20281;-73
2024/01/04 06:40:37;;;;;;;1.63;0.60;;;;;;;4.68;100.00;99015.63;6037233;28;20031;-73
2024/01/04 06:43:33;;;;;;;2.15;0.60;;;;;;;4.82;100.00;99034.31;6035347;28;20038;-72
2024/01/04 06:46:28;;;;;;;3.88;0.80;;;;;;;4.76;100.00;99034.91;6032931;28;20037;-72
2024/01/04 06:49:24;;;;;;;2.93;0.77;;;;;;;4.78;100.00;99042.66;6039340;28;20042;-73
2024/01/04 06:52:19;;;;;;;1.57;0.60;;;;;;;4.63;100.00;99038.88;6048449;28;20512;-73
2024/01/04 06:55:15;;;;;;;0.80;0.30;;;;;;;4.68;100.00;99057.63;6042289;28;20038;-72
2024/01/04 06:58:10;;;;;;;1.23;0.40;;;;;;;4.57;100.00;99068.34;6042627;28;20088;-73
2024/01/04 07:01:05;;;;;;;0.77;0.40;;;;;;;4.47;100.00;99057.09;6037157;28;20038;-73
2024/01/04 07:04:01;;;;;;;2.33;0.53;;;;;;;4.43;100.00;99069.69;6031493;28;20033;-73
2024/01/04 07:06:56;;;;;;;0.63;0.33;;;;;;;4.37;100.00;99085.19;6038266;28;20034;-72
2024/01/04 07:09:52;;;;;;;0.43;0.20;;;;;;;4.26;100.00;99072.28;6039715;28;20137;-73
2024/01/04 07:12:47;;;;;;;0.43;0.22;;;;;;;4.21;100.00;99086.66;6043385;28;20040;-73
2024/01/04 07:15:42;;;;;;;0.43;0.30;;;;;;;4.30;100.00;99097.22;6040504;28;20117;-72
2024/01/04 07:18:38;;;;;;;1.33;0.60;;;;;;;4.24;100.00;99101.25;6044984;28;20037;-72
2024/01/04 07:21:33;;;;;;;1.40;0.63;;;;;;;4.22;100.00;99103.22;6035949;28;20041;-73
2024/01/04 07:24:28;;;;;;;1.33;0.50;;;;;;;4.09;100.00;99097.50;6041173;28;20057;-74
2024/01/04 07:27:24;;;;;;;1.33;0.40;;;;;;;4.12;100.00;99102.44;6033565;28;20066;-72
2024/01/04 07:30:19;;;;;;;2.05;0.50;;;;;;;4.22;100.00;99129.44;6030542;28;20035;-72
2024/01/04 07:33:15;;;;;;;4.50;0.45;;;;;;;4.21;100.00;99125.19;6028299;28;20040;-72
2024/01/04 07:36:10;;;;;;;1.87;0.37;;;;;;;4.28;100.00;99147.25;6026649;28;20050;-72
2024/01/04 07:39:06;;;;;;;2.70;0.37;;;;;;;4.27;100.00;99153.44;6029704;28;20912;-72
2024/01/04 07:42:01;;;;;;;3.83;0.47;;;;;;;4.21;100.00;99154.06;6027668;28;20034;-72
2024/01/04 07:44:56;;;;;;;2.10;0.40;;;;;;;4.17;100.00;99152.66;6027409;28;20080;-72
2024/01/04 07:47:52;;;;;;;1.17;0.37;;;;;;;4.20;100.00;99178.63;6025390;28;20069;-72
2024/01/04 07:50:47;;;;;;;0.90;0.30;;;;;;;4.21;100.00;99170.59;6027039;28;20031;-72
2024/01/04 07:53:42;;;;;;;0.87;0.33;;;;;;;4.22;100.00;99172.25;6027750;28;20019;-73
2024/01/04 07:56:38;;;;;;;0.60;0.30;;;;;;;4.17;100.00;99168.41;6026932;28;20031;-73
2024/01/04 07:59:33;;;;;;;0.70;0.30;;;;;;;4.13;100.00;99167.06;6027361;28;20277;-72
2024/01/04 08:02:30;;;;;;;1.20;0.40;;;;;;;4.27;100.00;99194.63;6027663;28;20026;-72
2024/01/04 08:05:25;;;;;;;2.45;0.45;;;;;;;4.12;100.00;99186.38;6025549;28;20524;-72
2024/01/04 08:08:21;;;;;;;1.42;0.50;;;;;;;4.18;100.00;99217.28;6023355;28;20030;-72
2024/01/04 08:11:17;;;;;;;1.38;0.65;;;;;;;4.23;100.00;99209.81;6028692;28;20057;-72
2024/01/04 08:14:12;;;;;;;1.95;0.60;;;;;;;4.26;100.00;99234.94;6031353;28;20054;-73
2024/01/04 08:17:08;;;;;;;2.13;0.52;;;;;;;4.15;100.00;99228.06;6024596;28;20096;-72
2024/01/04 08:20:04;;;;;;;2.57;0.63;;;;;;;4.09;100.00;99236.50;6027223;28;20038;-72
2024/01/04 08:23:00;;;;;;;1.98;0.60;;;;;;;4.07;100.00;99238.44;6030911;28;20358;-73
2024/01/04 08:25:56;;;;;;;1.63;0.60;;;;;;;4.10;100.00;99259.13;6027029;28;20018;-71
2024/01/04 08:28:51;;;;;;;3.00;0.80;;;;;;;4.07;100.00;99254.16;6030576;28;20029;-73
2024/01/04 08:31:47;;;;;;;1.38;0.77;;;;;;;3.94;100.00;99241.34;6040231;28;20397;-73
2024/01/04 08:34:42;;;;;;;0.87;0.40;;;;;;;3.90;100.00;99254.88;6024579;28;20029;-72
2024/01/04 08:37:38;;;;;;;3.00;0.80;;;;;;;3.92;100.00;99255.56;6038054;28;20068;-72
2024/01/04 08:40:38;;;;;;;0.97;0.60;;;;;;;3.94;100.00;99245.78;6041095;28;20034;-72
2024/01/04 08:43:33;;;;;;;1.17;0.68;;;;;;;3.90;100.00;99268.81;6032535;28;20276;-72
2024/01/04 08:46:30;;;;;;;1.52;0.80;;;;;;;3.88;100.00;99262.91;6021874;28;20026;-73
2024/01/04 08:49:26;;;;;;;3.72;0.75;;;;;;;3.89;100.00;99280.25;6034938;28;20026;-72
2024/01/04 08:52:21;;;;;;;1.13;0.75;;;;;;;3.87;100.00;99292.69;6036654;28;20085;-72
2024/01/04 08:55:19;;;;;;;2.37;0.90;;;;;;;3.70;100.00;99289.91;6024979;28;20391;-73
2024/01/04 08:58:15;;;;;;;1.23;0.68;;;;;;;3.66;100.00;99297.25;6033953;28;20036;-72
2024/01/04 09:01:10;;;;;;;2.70;0.80;;;;;;;3.49;100.00;99292.66;6024123;28;20042;-72
2024/01/04 09:04:06;;;;;;;2.55;0.90;;;;;;;3.43;100.00;99303.69;6031406;28;20551;-72
2024/01/04 09:07:01;;;;;;;1.63;0.70;;;;;;;3.45;100.00;99304.41;6031018;28;20425;-71
2024/01/04 09:09:56;;;;;;;2.13;0.88;;;;;;;3.49;100.00;99316.25;6032041;28;20517;-72
2024/01/04 09:12:52;;;;;;;6.27;1.10;;;;;;;3.59;100.00;99332.81;6032228;28;20029;-73
2024/01/04 09:15:47;;;;;;;2.55;0.85;;;;;;;3.63;100.00;99343.84;6025864;28;20481;-73
2024/01/04 09:18:42;;;;;;;2.50;0.90;;;;;;;3.60;100.00;99343.19;6030550;28;20018;-73
2024/01/04 09:21:38;;;;;;;3.97;1.33;;;;;;;3.59;100.00;99357.22;6027764;28;20033;-73
2024/01/04 09:24:34;;;;;;;1.70;0.93;;;;;;;3.53;100.00;99362.19;6022496;28;20053;-73
2024/01/04 09:27:29;;;;;;;3.35;1.42;;;;;;;3.47;100.00;99379.28;6026767;28;20353;-73
2024/01/04 09:30:26;;;;;;;3.63;0.85;;;;;;;3.34;100.00;99389.16;6020226;28;20053;-73
2024/01/04 09:33:24;;;;;;;2.38;1.05;;;;;;;3.20;100.00;99391.31;6030286;28;20030;-72
2024/01/04 09:36:19;;;;;;;4.63;0.90;;;;;;;3.19;100.00;99408.00;6028381;28;20177;-72
2024/01/04 09:39:17;;;;;;;3.00;0.90;;;;;;;3.13;100.00;99408.50;6029718;28;20042;-71
2024/01/04 09:42:14;;;;;;;1.40;0.80;;;;;;;3.04;100.00;99417.16;6022993;28;20030;-71
2024/01/04 09:45:11;;;;;;;2.08;0.93;;;;;;;2.97;100.00;99419.47;6029015;28;20045;-72
2024/01/04 09:48:10;;;;;;;3.50;1.05;;;;;;;2.86;100.00;99422.16;6031041;28;20037;-72
2024/01/04 09:51:06;;;;;;;2.25;0.80;;;;;;;2.93;100.00;99428.56;6019067;28;20052;-74
2024/01/04 09:54:02;;;;;;;2.08;0.82;;;;;;;2.85;100.00;99434.41;6023785;28;20084;-70
2024/01/04 09:57:00;;;;;;;1.83;0.98;;;;;;;2.90;100.00;99447.13;6022566;28;20386;-72
2024/01/04 09:59:55;;;;;;;3.40;0.98;;;;;;;2.77;100.00;99457.78;6034074;28;20103;-71
2024/01/04 10:02:51;;;;;;;2.90;1.02;;;;;;;2.73;100.00;99440.69;6023087;28;20035;-71
2024/01/04 10:05:48;;;;;;;2.67;0.95;;;;;;;2.69;100.00;99459.41;6028543;28;20036;-72
2024/01/04 10:08:45;;;;;;;1.90;1.00;;;;;;;2.66;100.00;99457.88;6034071;28;20026;-71
2024/01/04 10:12:03;;;;;;;1.58;0.75;;;;;;;2.75;100.00;99474.56;6024214;28;20035;-72
2024/01/04 10:14:59;;;;;;;3.13;0.70;;;;;;;2.71;100.00;99481.03;6025806;28;20456;-72
2024/01/04 10:17:56;;;;;;;6.30;1.15;;;;;;;2.69;100.00;99480.34;6026170;28;20030;-72
2024/01/04 10:21:05;;;;;;;1.52;0.80;;;;;;;2.64;100.00;99491.16;6026277;28;20504;-72
2024/01/04 10:24:02;;;;;;;1.50;0.50;;;;;;;2.66;100.00;99485.81;6030272;28;20034;-73
2024/01/04 10:26:59;;;;;;;1.42;0.52;;;;;;;2.68;100.00;99497.81;6031209;28;20065;-73
2024/01/04 10:30:02;;;;;;;5.22;0.90;;;;;;;2.67;100.00;99503.16;6031589;28;20034;-71
2024/01/04 10:32:58;;;;;;;1.38;0.65;;;;;;;2.73;100.00;99510.50;6030635;28;20088;-71
2024/01/04 10:35:53;;;;;;;1.50;0.43;;;;;;;2.70;100.00;99513.38;6031877;28;20026;-72
2024/01/04 10:38:49;;;;;;;1.10;0.50;;;;;;;2.81;100.00;99519.41;6030680;28;20293;-71
2024/01/04 10:41:55;;;;;;;3.93;0.80;;;;;;;2.84;100.00;99531.41;6029889;28;20060;-71
2024/01/04 10:44:54;;;;;;;1.15;0.45;;;;;;;2.82;100.00;99528.09;6033926;28;20640;-72
2024/01/04 10:47:50;;;;;;;1.10;0.60;;;;;;;2.88;100.00;99541.47;6033541;28;20510;-72
2024/01/04 10:50:45;;;;;;;3.33;0.70;;;;;;;2.86;100.00;99537.31;6020201;28;20022;-72
2024/01/04 10:53:41;;;;;;;1.30;0.40;;;;;;;2.87;100.00;99546.84;6034437;28;20049;-72
2024/01/04 10:56:37;;;;;;;1.65;0.60;;;;;;;2.85;100.00;99546.16;6031821;28;20054;-71
2024/01/04 10:59:32;;;;;;;4.03;0.50;;;;;;;2.92;100.00;99547.31;6013284;28;20027;-72
2024/01/04 11:02:29;;;;;;;2.60;0.65;;;;;;;2.93;100.00;99543.75;6009807;28;20042;-71
2024/01/04 11:05:24;;;;;;;2.00;0.50;;;;;;;2.92;100.00;99549.91;6000608;28;20071;-71
2024/01/04 11:08:21;;;;;;;2.13;0.50;;;;;;;2.92;100.00;99550.75;6004218;28;20459;-72
2024/01/04 11:11:17;;;;;;;2.03;0.65;;;;;;;2.91;100.00;99535.16;6004261;28;20034;-72
2024/01/04 11:14:13;;;;;;;1.63;0.75;;;;;;;3.03;100.00;99554.25;6011723;28;20114;-71
2024/01/04 11:17:46;;;;;;;3.50;0.75;;;;;;;3.07;100.00;99564.38;6013731;28;20045;-72
2024/01/04 11:21:14;;;;;;;1.60;0.90;;;;;;;3.00;100.00;99555.34;6008778;28;20109;-70
2024/01/04 11:24:37;;;;;;;0.82;0.38;;;;;;;3.14;100.00;99570.75;6023010;28;20061;-72
2024/01/04 11:27:33;;;;;;;1.00;0.47;;;;;;;3.08;100.00;99566.03;5999654;28;20081;-72
2024/01/04 11:30:29;;;;;;;2.42;0.70;;;;;;;3.21;100.00;99571.91;6021059;28;20050;-72
2024/01/04 11:33:27;;;;;;;1.55;0.77;;;;;;;3.31;100.00;99583.28;6002100;28;20050;-72
2024/01/04 11:36:23;;;;;;;1.15;0.63;;;;;;;3.23;100.00;99580.47;6000814;28;20406;-72
2024/01/04 11:39:27;;;;;;;1.55;0.57;;;;;;;3.20;100.00;99600.84;6011162;28;20031;-72
2024/01/04 11:42:38;;;;;;;1.40;0.80;;;;;;;3.26;100.00;99611.63;6007262;28;20035;-74
2024/01/04 11:45:34;;;;;;;1.90;0.55;;;;;;;3.33;100.00;99602.31;6001062;28;20077;-72
2024/01/04 11:48:29;;;;;;;1.70;0.53;;;;;;;3.36;100.00;99604.69;6004184;28;20502;-72
2024/01/04 11:51:40;;;;;;;1.10;0.50;;;;;;;3.35;100.00;99603.03;6019815;28;20038;-72
2024/01/04 11:54:36;;;;;;;1.20;0.50;;;;;;;3.31;100.00;99606.03;6011089;28;20092;-73
2024/01/04 11:57:31;;;;;;;3.80;0.60;;;;;;;3.24;100.00;99607.47;6003914;28;20035;-73
2024/01/04 12:00:32;;;;;;;1.67;0.50;;;;;;;3.26;100.00;99601.16;6011468;28;20580;-72
2024/01/04 12:03:28;;;;;;;1.17;0.50;;;;;;;3.27;100.00;99618.53;6014388;28;20113;-73
2024/01/04 12:06:24;;;;;;;2.70;0.60;;;;;;;3.16;100.00;99618.59;6006606;28;20030;-72
2024/01/04 12:09:20;;;;;;;1.02;0.68;;;;;;;3.17;100.00;99637.78;6013827;28;20568;-73
2024/01/04 12:12:16;;;;;;;1.00;0.47;;;;;;;3.23;100.00;99635.50;6018482;28;20105;-72
2024/01/04 12:15:13;;;;;;;0.55;0.35;;;;;;;3.09;100.00;99635.78;6011815;28;20386;-72
2024/01/04 12:18:08;;;;;;;3.50;0.40;;;;;;;3.18;100.00;99642.88;6010565;28;20075;-73
2024/01/04 12:21:07;;;;;;;2.07;0.73;;;;;;;3.27;100.00;99644.75;6008073;28;20038;-72
2024/01/04 12:24:03;;;;;;;2.42;0.60;;;;;;;3.14;100.00;99640.63;6017014;28;20019;-72
2024/01/04 12:26:58;;;;;;;2.83;0.88;;;;;;;3.27;100.00;99657.00;6005783;28;20062;-73
2024/01/04 12:29:54;;;;;;;1.25;0.50;;;;;;;3.23;100.00;99651.22;6011965;28;20033;-73
2024/01/04 12:32:50;;;;;;;4.53;0.70;;;;;;;3.32;100.00;99662.69;5999921;28;20389;-73
2024/01/04 12:35:45;;;;;;;1.85;0.70;;;;;;;3.27;100.00;99660.47;6002792;28;20038;-73
2024/01/04 12:38:40;;;;;;;4.20;0.70;;;;;;;3.40;100.00;99665.50;6013192;28;20471;-72
2024/01/04 12:41:39;;;;;;;2.43;0.57;;;;;;;3.37;100.00;99671.84;6012311;28;20023;-72
2024/01/04 12:44:34;;;;;;;1.88;0.60;;;;;;;3.31;100.00;99682.84;6007053;28;20039;-72
2024/01/04 12:47:31;;;;;;;2.08;0.68;;;;;;;3.30;100.00;99689.03;6000866;28;20578;-71
2024/01/04 12:50:30;;;;;;;1.25;0.60;;;;;;;3.22;100.00;99688.81;6004516;28;20088;-72
2024/01/04 12:53:26;;;;;;;1.27;0.73;;;;;;;3.29;100.00;99705.69;5999556;28;20043;-71
2024/01/04 12:56:22;;;;;;;2.67;0.50;;;;;;;3.19;100.00;99693.47;5998060;28;20035;-72
2024/01/04 12:59:19;;;;;;;1.83;0.55;;;;;;;3.26;100.00;99710.38;6005261;28;20054;-72
2024/01/04 13:02:14;;;;;;;0.85;0.60;;;;;;;3.26;100.00;99712.97;6001953;28;20110;-72
2024/01/04 13:05:09;;;;;;;1.47;0.50;;;;;;;3.26;100.00;99720.84;6007123;28;20035;-71
2024/01/04 13:08:05;;;;;;;3.40;0.60;;;;;;;3.32;100.00;99722.94;6000375;28;20038;-71
2024/01/04 13:11:02;;;;;;;2.08;0.70;;;;;;;3.21;100.00;99718.56;6004742;28;20486;-72
2024/01/04 13:13:57;;;;;;;3.58;0.68;;;;;;;3.25;100.00;99725.25;6009792;28;20033;-72
2024/01/04 13:16:53;;;;;;;0.83;0.47;;;;;;;3.21;100.00;99731.66;6007118;28;20490;-73
2024/01/04 13:19:48;;;;;;;2.28;0.75;;;;;;;3.22;100.00;99740.38;6007764;28;20020;-73
2024/01/04 13:22:44;;;;;;;4.57;0.87;;;;;;;3.23;100.00;99748.13;5999873;28;20033;-72
2024/01/04 13:25:40;;;;;;;1.05;0.63;;;;;;;3.17;100.00;99742.53;6003735;28;20046;-73
2024/01/04 13:28:36;;;;;;;1.42;0.60;;;;;;;3.19;100.00;99753.72;5998875;28;20118;-73
2024/01/04 13:31:31;;;;;;;1.17;0.73;;;;;;;3.24;100.00;99762.88;6005916;28;20093;-73
2024/01/04 13:34:26;;;;;;;2.40;0.80;;;;;;;3.23;100.00;99761.22;6005323;28;20054;-73
2024/01/04 13:37:22;;;;;;;2.10;0.83;;;;;;;3.28;100.00;99764.28;6012887;28;20031;-73
2024/01/04 13:40:17;;;;;;;1.93;0.80;;;;;;;3.19;100.00;99761.56;6007990;28;20462;-74
2024/01/04 13:43:14;;;;;;;0.93;0.50;;;;;;;3.17;100.00;99756.47;6003980;28;20034;-72
2024/01/04 13:46:10;;;;;;;4.78;1.00;;;;;;;3.17;100.00;99763.47;6012779;28;20702;-73
2024/01/04 13:49:05;;;;;;;1.83;0.50;;;;;;;3.19;100.00;99767.63;6001711;28;20046;-73
2024/01/04 13:52:03;;;;;;;3.47;0.85;;;;;;;3.30;100.00;99764.16;5999898;28;20078;-73